Time;durP1;ratioP1;P1;durP2;ratioP2;P2;SDS_P1;SDS_P2;PMS_P1;PMS_P2;Temp;Humidity;BMP_temperature;BMP_pressure;BME280_temperature;BME280_humidity;BME280_pressure;Samples;Min_cycle;Max_cycle;Signal;HPM_P1;HPM_P2
2022/10/29 00:02:05;;;;;;;3.35;1.42;;;13.00;99.90;;;;;;4956049;29;20174;-66
2022/10/29 00:04:31;;;;;;;6.10;1.70;;;13.00;99.90;;;;;;4955678;29;20066;-66
2022/10/29 00:06:57;;;;;;;7.88;1.88;;;13.20;99.90;;;;;;4955665;29;20046;-66
2022/10/29 00:09:22;;;;;;;2.55;1.38;;;13.00;99.90;;;;;;4955519;29;20043;-66
2022/10/29 00:11:48;;;;;;;8.18;1.55;;;12.90;99.90;;;;;;4955899;29;20040;-66
2022/10/29 00:14:15;;;;;;;6.75;1.10;;;12.90;99.90;;;;;;4955870;29;20089;-66
2022/10/29 00:16:40;;;;;;;4.53;1.30;;;12.90;99.90;;;;;;4955839;29;20074;-66
2022/10/29 00:19:06;;;;;;;5.20;1.45;;;12.90;99.90;;;;;;4955473;29;20492;-66
2022/10/29 00:21:33;;;;;;;6.68;1.50;;;12.90;99.90;;;;;;4955776;29;20136;-66
2022/10/29 00:23:59;;;;;;;6.72;1.30;;;12.90;99.90;;;;;;4955354;29;20054;-66
2022/10/29 00:26:27;;;;;;;4.22;1.88;;;12.80;99.90;;;;;;4938107;28;20042;-67
2022/10/29 00:28:54;;;;;;;8.02;1.52;;;12.90;99.90;;;;;;4955321;29;20110;-66
2022/10/29 00:31:23;;;;;;;9.52;1.58;;;12.90;99.90;;;;;;4955556;29;20039;-66
2022/10/29 00:33:54;;;;;;;1.70;1.05;;;12.80;99.90;;;;;;4955281;29;20385;-66
2022/10/29 00:36:28;;;;;;;3.60;1.65;;;12.80;99.90;;;;;;4955538;29;20050;-66
2022/10/29 00:38:55;;;;;;;4.30;1.30;;;12.80;99.90;;;;;;4955224;29;20125;-66
2022/10/29 00:41:25;;;;;;;7.70;1.40;;;12.80;99.90;;;;;;4955504;29;20043;-66
2022/10/29 00:44:14;;;;;;;2.67;1.45;;;13.20;99.90;;;;;;4955191;29;20126;-66
2022/10/29 00:46:50;;;;;;;6.78;1.60;;;12.80;99.90;;;;;;4943320;29;20073;-66
2022/10/29 00:49:17;;;;;;;7.97;1.40;;;12.70;99.90;;;;;;4955347;29;20554;-66
2022/10/29 00:51:44;;;;;;;2.33;1.35;;;12.70;99.90;;;;;;4955001;29;20043;-66
2022/10/29 00:54:15;;;;;;;2.63;1.23;;;12.70;99.90;;;;;;4955372;29;20369;-66
2022/10/29 00:56:54;;;;;;;9.25;1.58;;;12.80;99.90;;;;;;4955343;29;20576;-66
2022/10/29 00:59:20;;;;;;;6.22;1.40;;;12.80;99.90;;;;;;4937883;29;20113;-66
2022/10/29 01:01:48;;;;;;;3.08;1.38;;;12.80;99.90;;;;;;4955289;29;20035;-66
2022/10/29 01:04:14;;;;;;;5.18;1.25;;;12.70;99.90;;;;;;4955229;29;20545;-66
2022/10/29 01:06:41;;;;;;;7.75;1.52;;;12.70;99.90;;;;;;4955269;29;20040;-66
2022/10/29 01:09:06;;;;;;;3.97;1.30;;;12.70;99.90;;;;;;4937710;29;20118;-66
2022/10/29 01:11:47;;;;;;;6.47;1.27;;;12.60;99.90;;;;;;4938152;29;20047;-66
2022/10/29 01:14:21;;;;;;;3.05;1.08;;;12.60;99.90;;;;;;4955223;29;20105;-66
2022/10/29 01:17:03;;;;;;;7.85;1.55;;;12.60;99.90;;;;;;4955102;29;20039;-66
2022/10/29 01:20:04;;;;;;;8.82;1.67;;;12.60;99.90;;;;;;4955196;29;20109;-66
2022/10/29 01:22:38;;;;;;;5.78;0.93;;;12.60;99.90;;;;;;4937708;29;20082;-66
2022/10/29 01:25:13;;;;;;;2.90;1.27;;;12.60;99.90;;;;;;4955103;29;20043;-66
2022/10/29 01:27:57;;;;;;;8.00;1.50;;;12.60;99.90;;;;;;4954990;29;20051;-66
2022/10/29 01:30:32;;;;;;;12.80;1.75;;;12.60;99.90;;;;;;4954701;29;20078;-66
2022/10/29 01:33:00;;;;;;;2.67;1.33;;;12.50;99.90;;;;;;4954594;29;20107;-66
2022/10/29 01:35:41;;;;;;;6.40;1.15;;;12.50;99.90;;;;;;4954969;29;20043;-66
2022/10/29 01:38:06;;;;;;;6.20;1.88;;;12.50;99.90;;;;;;4955026;28;20479;-66
2022/10/29 01:40:47;;;;;;;11.65;1.67;;;12.40;99.90;;;;;;4957735;29;20051;-66
2022/10/29 01:43:44;;;;;;;4.18;1.35;;;12.50;99.90;;;;;;4958608;29;20043;-66
2022/10/29 01:46:21;;;;;;;3.42;1.30;;;12.40;99.90;;;;;;4941085;29;20047;-66
2022/10/29 01:48:51;;;;;;;3.33;1.27;;;12.30;99.90;;;;;;4958378;29;20050;-66
2022/10/29 01:51:23;;;;;;;5.88;1.65;;;12.30;99.90;;;;;;4958175;29;20079;-66
2022/10/29 01:53:51;;;;;;;5.13;1.80;;;12.30;99.90;;;;;;4958337;29;20461;-66
2022/10/29 01:56:16;;;;;;;3.00;1.10;;;12.30;99.90;;;;;;4958341;29;20133;-66
2022/10/29 01:58:48;;;;;;;3.35;1.05;;;12.20;99.90;;;;;;4958451;29;20078;-66
2022/10/29 02:01:24;;;;;;;8.10;1.35;;;12.10;99.90;;;;;;4958541;29;20502;-66
2022/10/29 02:04:11;;;;;;;6.03;1.02;;;12.10;99.90;;;;;;4958209;29;20539;-66
2022/10/29 02:06:56;;;;;;;5.47;1.38;;;12.10;99.90;;;;;;4940847;29;20137;-66
2022/10/29 02:09:40;;;;;;;2.63;1.17;;;12.10;99.90;;;;;;4958006;29;20047;-66
2022/10/29 02:12:10;;;;;;;3.55;1.20;;;12.10;99.90;;;;;;4940574;29;20094;-66
2022/10/29 02:15:06;;;;;;;5.93;1.50;;;12.00;99.90;;;;;;4958051;29;20039;-66
2022/10/29 02:17:33;;;;;;;2.97;1.30;;;12.00;99.90;;;;;;4957784;29;20046;-66
2022/10/29 02:20:06;;;;;;;2.83;1.13;;;12.00;99.90;;;;;;4957816;29;20039;-66
2022/10/29 02:22:32;;;;;;;4.55;1.75;;;11.90;99.90;;;;;;4957600;29;20039;-66
2022/10/29 02:24:57;;;;;;;4.70;1.20;;;12.00;99.90;;;;;;4957548;29;20066;-66
2022/10/29 02:27:23;;;;;;;1.70;0.88;;;11.90;99.90;;;;;;4957889;29;20039;-66
2022/10/29 02:29:49;;;;;;;1.98;1.02;;;11.90;99.90;;;;;;4957384;29;20053;-66
2022/10/29 02:32:14;;;;;;;3.45;1.50;;;11.90;99.90;;;;;;4957505;29;20035;-66
2022/10/29 02:34:40;;;;;;;2.92;1.15;;;11.90;99.90;;;;;;4957582;29;20040;-66
2022/10/29 02:37:05;;;;;;;3.83;1.20;;;12.00;99.90;;;;;;4957657;29;20081;-66
2022/10/29 02:39:31;;;;;;;3.75;1.73;;;11.90;99.90;;;;;;4940114;29;20047;-66
2022/10/29 02:41:57;;;;;;;4.72;1.80;;;11.90;99.90;;;;;;4957449;29;20046;-66
2022/10/29 02:44:23;;;;;;;5.93;1.52;;;11.90;99.90;;;;;;4957180;29;20491;-67
2022/10/29 02:46:49;;;;;;;4.50;1.08;;;11.80;99.90;;;;;;4957432;29;20049;-67
2022/10/29 02:49:14;;;;;;;6.10;2.05;;;12.10;99.90;;;;;;4957337;29;20050;-66
2022/10/29 02:51:40;;;;;;;7.15;1.38;;;11.80;99.90;;;;;;4956755;28;20043;-66
2022/10/29 02:54:06;;;;;;;3.78;1.48;;;11.80;99.90;;;;;;4957324;29;20039;-66
2022/10/29 02:56:31;;;;;;;8.90;1.70;;;11.70;99.90;;;;;;4957258;29;20051;-66
2022/10/29 02:58:57;;;;;;;3.67;2.03;;;11.70;99.90;;;;;;4957139;29;20050;-66
2022/10/29 03:01:23;;;;;;;4.28;1.90;;;11.70;99.90;;;;;;4957174;29;20078;-66
2022/10/29 03:03:49;;;;;;;7.25;1.83;;;11.70;99.90;;;;;;4957117;29;20133;-66
2022/10/29 03:06:16;;;;;;;4.00;1.90;;;11.70;99.90;;;;;;4957095;29;20043;-66
2022/10/29 03:08:42;;;;;;;5.15;2.08;;;11.70;99.90;;;;;;4956680;29;20097;-66
2022/10/29 03:11:08;;;;;;;3.30;1.70;;;11.70;99.90;;;;;;4956986;29;20488;-66
2022/10/29 03:13:34;;;;;;;6.35;1.95;;;11.90;99.90;;;;;;4956951;29;20035;-66
2022/10/29 03:16:00;;;;;;;4.88;1.52;;;11.80;99.90;;;;;;4939774;29;20043;-66
2022/10/29 03:18:25;;;;;;;5.18;2.15;;;11.80;99.90;;;;;;4956828;29;20091;-66
2022/10/29 03:20:51;;;;;;;8.80;2.90;;;11.90;99.90;;;;;;4939351;29;20058;-66
2022/10/29 03:23:17;;;;;;;5.82;2.20;;;11.80;99.90;;;;;;4956415;29;20126;-66
2022/10/29 03:25:43;;;;;;;5.50;2.17;;;11.90;99.90;;;;;;4956670;29;20054;-66
2022/10/29 03:28:09;;;;;;;9.40;2.38;;;11.90;99.90;;;;;;4956574;29;20114;-66
2022/10/29 03:30:34;;;;;;;5.22;2.33;;;11.90;99.90;;;;;;4956622;29;20115;-67
2022/10/29 03:33:00;;;;;;;10.32;2.70;;;11.90;99.90;;;;;;4956052;28;20047;-66
2022/10/29 03:35:26;;;;;;;4.18;2.40;;;12.00;99.90;;;;;;4956515;29;20050;-66
2022/10/29 03:37:52;;;;;;;7.30;2.40;;;12.10;99.90;;;;;;4956182;29;20407;-66
2022/10/29 03:40:18;;;;;;;6.80;2.30;;;12.00;99.90;;;;;;4956411;29;20035;-66
2022/10/29 03:42:45;;;;;;;4.30;2.60;;;12.10;99.90;;;;;;4956405;29;20043;-66
2022/10/29 03:45:11;;;;;;;7.10;2.60;;;12.10;99.90;;;;;;4956370;29;20047;-66
2022/10/29 03:47:36;;;;;;;3.80;2.20;;;12.10;99.90;;;;;;4955867;29;20049;-66
2022/10/29 03:50:03;;;;;;;3.92;2.38;;;12.10;99.90;;;;;;4956205;29;20135;-66
2022/10/29 03:52:29;;;;;;;6.40;2.70;;;12.20;99.90;;;;;;4955957;29;20116;-66
2022/10/29 03:54:54;;;;;;;4.28;2.78;;;12.10;99.90;;;;;;4955840;29;20056;-66
2022/10/29 03:57:20;;;;;;;5.72;2.75;;;12.20;99.90;;;;;;4955921;29;20131;-66
2022/10/29 03:59:47;;;;;;;6.93;3.45;;;12.30;99.90;;;;;;4956089;29;20050;-66
2022/10/29 04:02:13;;;;;;;5.05;2.47;;;12.20;99.90;;;;;;4955437;28;20055;-66
2022/10/29 04:04:38;;;;;;;8.07;2.90;;;12.20;99.90;;;;;;4955981;29;20043;-66
2022/10/29 04:07:04;;;;;;;6.95;2.90;;;12.20;99.90;;;;;;4955750;29;20043;-66
2022/10/29 04:09:30;;;;;;;4.35;2.33;;;12.30;99.90;;;;;;4955544;29;20094;-66
2022/10/29 04:11:56;;;;;;;10.20;3.40;;;12.30;99.90;;;;;;4955898;29;20067;-66
2022/10/29 04:14:21;;;;;;;3.95;2.90;;;12.30;99.90;;;;;;4938811;29;20035;-66
2022/10/29 04:16:47;;;;;;;13.65;3.58;;;12.40;99.90;;;;;;4955804;29;20043;-66
2022/10/29 04:19:13;;;;;;;8.30;2.67;;;12.40;99.90;;;;;;4955699;29;20043;-66
2022/10/29 04:21:38;;;;;;;8.82;2.92;;;12.40;99.90;;;;;;4938543;29;20043;-66
2022/10/29 04:24:05;;;;;;;9.52;3.05;;;12.40;99.90;;;;;;4955390;29;20055;-66
2022/10/29 04:26:30;;;;;;;6.22;3.10;;;12.40;99.90;;;;;;4955715;29;20490;-66
2022/10/29 04:28:56;;;;;;;6.55;3.05;;;12.40;99.90;;;;;;4955359;29;20039;-66
2022/10/29 04:31:21;;;;;;;13.82;3.72;;;12.40;99.90;;;;;;4955636;29;20043;-66
2022/10/29 04:33:47;;;;;;;9.60;3.92;;;12.50;99.90;;;;;;4955076;28;20055;-67
2022/10/29 04:36:13;;;;;;;8.20;3.30;;;12.40;99.90;;;;;;4955514;29;20043;-66
2022/10/29 04:38:39;;;;;;;7.95;3.13;;;12.50;99.90;;;;;;4938057;29;20410;-66
2022/10/29 04:41:05;;;;;;;8.70;3.38;;;12.50;99.90;;;;;;4937999;29;20496;-66
2022/10/29 04:43:30;;;;;;;8.32;3.30;;;12.50;99.90;;;;;;4938191;29;20506;-66
2022/10/29 04:45:58;;;;;;;10.85;2.85;;;12.50;99.90;;;;;;4955404;29;20114;-66
2022/10/29 04:48:25;;;;;;;9.48;3.42;;;12.50;99.90;;;;;;4955337;29;20428;-66
2022/10/29 04:50:51;;;;;;;11.00;3.42;;;12.50;99.90;;;;;;4955109;29;20047;-66
2022/10/29 04:53:17;;;;;;;8.13;3.38;;;12.50;99.90;;;;;;4955424;29;20050;-66
2022/10/29 04:55:43;;;;;;;9.18;3.75;;;12.50;99.90;;;;;;4955370;29;20066;-66
2022/10/29 04:58:17;;;;;;;6.72;2.78;;;12.50;99.90;;;;;;4955052;29;20051;-66
2022/10/29 05:00:44;;;;;;;6.30;2.80;;;12.50;99.90;;;;;;4955302;29;20051;-66
2022/10/29 05:03:10;;;;;;;8.48;3.40;;;12.50;99.90;;;;;;4955286;29;20400;-66
2022/10/29 05:05:38;;;;;;;17.02;4.07;;;12.50;99.90;;;;;;4937825;29;20474;-66
2022/10/29 05:08:05;;;;;;;5.50;3.25;;;12.50;99.90;;;;;;4955173;29;20110;-66
2022/10/29 05:10:33;;;;;;;8.55;3.08;;;12.50;99.90;;;;;;4955274;29;20043;-67
2022/10/29 05:13:08;;;;;;;8.15;3.40;;;12.50;99.90;;;;;;4955693;28;20089;-66
2022/10/29 05:15:34;;;;;;;6.53;3.00;;;12.50;99.90;;;;;;4958883;29;20035;-67
2022/10/29 05:18:01;;;;;;;8.13;3.83;;;12.50;99.90;;;;;;4958866;29;20054;-66
2022/10/29 05:20:26;;;;;;;5.75;2.95;;;12.50;99.90;;;;;;4958999;29;20046;-66
2022/10/29 05:22:59;;;;;;;7.30;3.25;;;12.50;99.90;;;;;;4958869;29;20496;-66
2022/10/29 05:25:26;;;;;;;6.47;3.97;;;12.50;99.90;;;;;;4958841;29;20047;-66
2022/10/29 05:28:06;;;;;;;10.73;3.70;;;12.50;99.90;;;;;;4958632;29;20047;-66
2022/10/29 05:30:33;;;;;;;8.18;3.50;;;12.60;99.90;;;;;;4958812;29;20130;-66
2022/10/29 05:32:59;;;;;;;5.82;3.50;;;12.50;99.90;;;;;;4958593;29;20055;-66
2022/10/29 05:35:25;;;;;;;13.23;3.33;;;12.50;99.90;;;;;;4958768;29;20047;-66
2022/10/29 05:37:55;;;;;;;8.52;3.90;;;12.50;99.90;;;;;;4958706;29;20406;-66
2022/10/29 05:40:22;;;;;;;6.50;3.22;;;12.50;99.90;;;;;;4958625;29;20043;-66
2022/10/29 05:42:48;;;;;;;5.40;2.85;;;12.50;99.90;;;;;;4941172;29;20125;-66
2022/10/29 05:45:14;;;;;;;5.82;2.83;;;12.50;99.90;;;;;;4958568;29;20094;-66
2022/10/29 05:47:40;;;;;;;5.05;3.20;;;12.50;99.90;;;;;;4958435;29;20047;-66
2022/10/29 05:50:06;;;;;;;6.00;3.13;;;12.50;99.90;;;;;;4958489;29;20134;-66
2022/10/29 05:52:31;;;;;;;10.32;3.80;;;12.50;99.90;;;;;;4958407;29;20035;-66
2022/10/29 05:54:58;;;;;;;6.93;3.47;;;12.50;99.90;;;;;;4940981;29;20466;-68
2022/10/29 05:57:24;;;;;;;12.70;3.72;;;12.50;99.90;;;;;;4958349;29;20089;-66
2022/10/29 05:59:49;;;;;;;6.20;3.55;;;12.50;99.90;;;;;;4958321;29;20043;-66
2022/10/29 06:02:15;;;;;;;8.25;3.47;;;12.50;99.90;;;;;;4958319;29;20118;-66
2022/10/29 06:04:41;;;;;;;8.02;4.13;;;12.50;99.90;;;;;;4958199;29;20087;-66
2022/10/29 06:07:06;;;;;;;13.23;3.78;;;12.50;99.90;;;;;;4958167;29;20427;-66
2022/10/29 06:09:32;;;;;;;7.70;3.67;;;12.50;99.90;;;;;;4957730;29;20043;-66
2022/10/29 06:12:01;;;;;;;6.80;3.67;;;12.50;99.90;;;;;;4957775;29;20050;-66
2022/10/29 06:14:26;;;;;;;11.63;3.88;;;12.50;99.90;;;;;;4958059;29;20042;-67
2022/10/29 06:16:52;;;;;;;7.63;3.67;;;12.50;99.90;;;;;;4957975;29;20043;-66
2022/10/29 06:19:18;;;;;;;11.00;4.18;;;12.50;99.90;;;;;;4957950;29;20122;-66
2022/10/29 06:21:44;;;;;;;14.02;4.10;;;12.50;99.90;;;;;;4940720;29;20050;-66
2022/10/29 06:24:09;;;;;;;9.35;5.05;;;12.50;99.90;;;;;;4940302;29;20526;-66
2022/10/29 06:26:36;;;;;;;9.73;4.40;;;12.60;99.90;;;;;;4923827;29;20046;-66
2022/10/29 06:29:02;;;;;;;8.13;4.10;;;12.60;99.90;;;;;;4957732;29;20039;-66
2022/10/29 06:31:28;;;;;;;14.07;4.55;;;12.60;99.90;;;;;;4957702;29;20506;-66
2022/10/29 06:33:54;;;;;;;10.90;4.85;;;12.60;99.90;;;;;;4957291;29;20059;-66
2022/10/29 06:36:20;;;;;;;14.48;4.15;;;12.60;99.90;;;;;;4957591;29;20062;-66
2022/10/29 06:38:46;;;;;;;11.25;4.47;;;12.70;99.90;;;;;;4957562;29;20047;-66
2022/10/29 06:41:12;;;;;;;10.63;4.82;;;12.70;99.90;;;;;;4957316;29;20047;-66
2022/10/29 06:43:38;;;;;;;14.80;5.10;;;12.70;99.90;;;;;;4957564;29;20391;-66
2022/10/29 06:46:04;;;;;;;20.70;5.18;;;12.70;99.90;;;;;;4957463;29;20040;-66
2022/10/29 06:48:29;;;;;;;13.30;5.75;;;12.70;99.90;;;;;;4957354;29;20047;-67
2022/10/29 06:50:58;;;;;;;11.68;4.57;;;12.70;99.90;;;;;;4957326;29;20050;-66
2022/10/29 06:53:25;;;;;;;8.15;4.28;;;12.70;99.90;;;;;;4957102;29;20039;-66
2022/10/29 06:55:50;;;;;;;9.73;5.15;;;12.70;99.90;;;;;;4956984;29;20042;-67
2022/10/29 06:58:19;;;;;;;15.57;4.88;;;12.70;99.90;;;;;;4957294;29;20047;-66
2022/10/29 07:00:45;;;;;;;9.35;5.10;;;12.70;99.90;;;;;;4956814;29;20062;-66
2022/10/29 07:03:16;;;;;;;12.50;5.22;;;12.70;99.90;;;;;;4956887;29;20053;-66
2022/10/29 07:05:41;;;;;;;8.75;4.97;;;12.80;99.90;;;;;;4957109;29;20122;-66
2022/10/29 07:08:08;;;;;;;11.75;4.90;;;12.80;99.90;;;;;;4956965;29;20451;-66
2022/10/29 07:10:34;;;;;;;8.98;5.07;;;12.80;99.90;;;;;;4956889;29;20042;-66
2022/10/29 07:13:00;;;;;;;13.95;5.10;;;12.80;99.90;;;;;;4957004;29;20055;-67
2022/10/29 07:15:27;;;;;;;9.52;4.53;;;12.80;99.90;;;;;;4956647;29;20031;-66
2022/10/29 07:17:54;;;;;;;10.13;4.70;;;12.80;99.90;;;;;;4956845;29;20031;-66
2022/10/29 07:20:20;;;;;;;10.15;5.25;;;12.90;99.90;;;;;;4956491;29;20082;-67
2022/10/29 07:22:46;;;;;;;10.38;5.15;;;12.90;99.90;;;;;;4956488;29;20081;-65
2022/10/29 07:25:12;;;;;;;11.52;5.32;;;12.90;99.90;;;;;;4956615;29;20091;-66
2022/10/29 07:27:38;;;;;;;7.82;4.60;;;12.90;99.90;;;;;;4956516;29;20043;-65
2022/10/29 07:30:04;;;;;;;10.20;5.22;;;12.90;99.90;;;;;;4956458;29;20035;-66
2022/10/29 07:32:29;;;;;;;12.30;5.40;;;13.00;99.90;;;;;;4956416;29;20050;-66
2022/10/29 07:34:55;;;;;;;11.55;5.70;;;13.00;99.90;;;;;;4939051;29;20422;-65
2022/10/29 07:37:21;;;;;;;10.20;4.82;;;13.00;99.90;;;;;;4955441;28;20546;-66
2022/10/29 07:39:46;;;;;;;13.98;6.10;;;13.00;99.90;;;;;;4956338;29;20407;-66
2022/10/29 07:42:12;;;;;;;9.25;4.85;;;13.00;99.90;;;;;;4956102;29;20051;-67
2022/10/29 07:44:38;;;;;;;15.00;6.00;;;13.00;99.90;;;;;;4939145;29;20097;-67
2022/10/29 07:47:03;;;;;;;10.82;4.95;;;13.00;99.90;;;;;;4939119;29;20050;-66
2022/10/29 07:49:29;;;;;;;17.88;5.07;;;13.00;99.90;;;;;;4955829;29;20043;-66
2022/10/29 07:51:56;;;;;;;10.70;5.47;;;13.10;99.90;;;;;;4939180;29;20041;-67
2022/10/29 07:54:23;;;;;;;9.38;4.63;;;13.10;99.90;;;;;;4939136;29;20499;-67
2022/10/29 07:56:51;;;;;;;13.35;5.82;;;13.10;99.90;;;;;;4956101;29;20051;-68
2022/10/29 07:59:18;;;;;;;10.00;5.13;;;13.10;99.90;;;;;;4956150;29;20043;-69
2022/10/29 08:01:43;;;;;;;8.00;4.82;;;13.10;99.90;;;;;;4956027;29;20122;-69
2022/10/29 08:04:09;;;;;;;9.18;3.90;;;13.00;99.90;;;;;;4956049;29;20070;-66
2022/10/29 08:06:35;;;;;;;9.82;5.00;;;13.10;99.90;;;;;;4955656;29;20043;-69
2022/10/29 08:09:01;;;;;;;8.40;4.63;;;13.20;99.90;;;;;;4955501;29;20492;-67
2022/10/29 08:11:27;;;;;;;13.68;5.38;;;13.10;99.90;;;;;;4938661;29;20379;-67
2022/10/29 08:13:53;;;;;;;12.70;5.75;;;13.20;99.90;;;;;;4955787;29;20090;-67
2022/10/29 08:16:18;;;;;;;13.77;5.65;;;13.20;99.90;;;;;;4955382;29;20039;-68
2022/10/29 08:18:45;;;;;;;11.27;5.30;;;13.30;99.90;;;;;;4955387;29;20047;-67
2022/10/29 08:21:10;;;;;;;7.40;4.47;;;13.30;99.90;;;;;;4955693;29;20486;-67
2022/10/29 08:23:36;;;;;;;10.32;5.03;;;13.40;99.90;;;;;;4955603;29;20070;-67
2022/10/29 08:26:02;;;;;;;9.13;5.03;;;13.40;99.90;;;;;;4955575;29;20098;-66
2022/10/29 08:28:28;;;;;;;12.73;4.75;;;13.50;99.90;;;;;;4938612;29;20075;-67
2022/10/29 08:30:54;;;;;;;9.48;5.13;;;13.50;99.90;;;;;;4955631;29;20097;-67
2022/10/29 08:33:19;;;;;;;8.75;4.68;;;13.60;99.90;;;;;;4955045;28;20408;-67
2022/10/29 08:35:46;;;;;;;10.75;5.35;;;13.60;99.90;;;;;;4955634;29;20137;-67
2022/10/29 08:38:11;;;;;;;7.93;4.22;;;13.70;99.90;;;;;;4955296;29;20043;-67
2022/10/29 08:40:41;;;;;;;6.82;4.50;;;13.70;99.90;;;;;;4955179;29;20381;-67
2022/10/29 08:43:15;;;;;;;9.90;5.40;;;13.70;99.90;;;;;;4955226;29;20102;-66
2022/10/29 08:45:45;;;;;;;9.32;4.80;;;13.80;99.90;;;;;;4955125;29;20047;-66
2022/10/29 08:48:29;;;;;;;10.85;4.28;;;13.80;99.90;;;;;;4955029;29;20479;-66
2022/10/29 08:51:14;;;;;;;7.18;4.25;;;13.80;99.90;;;;;;4955371;29;20475;-66
2022/10/29 08:53:46;;;;;;;11.45;4.55;;;13.90;99.90;;;;;;4955014;29;20046;-66
2022/10/29 08:56:24;;;;;;;11.38;4.88;;;14.00;99.90;;;;;;4955073;29;20039;-66
2022/10/29 08:58:55;;;;;;;11.82;4.72;;;14.10;99.90;;;;;;4954975;29;20047;-66
2022/10/29 09:01:22;;;;;;;9.40;4.68;;;14.20;99.90;;;;;;4954970;29;20054;-66
2022/10/29 09:03:49;;;;;;;9.90;4.55;;;14.20;99.90;;;;;;4937769;29;20122;-67
2022/10/29 09:06:47;;;;;;;9.45;4.60;;;14.30;99.90;;;;;;4955223;29;20043;-67
2022/10/29 09:09:33;;;;;;;10.60;4.82;;;14.30;99.90;;;;;;4937685;29;20137;-67
2022/10/29 09:12:08;;;;;;;11.30;4.47;;;14.40;99.90;;;;;;4955165;29;20035;-67
2022/10/29 09:15:04;;;;;;;6.03;4.07;;;14.40;99.90;;;;;;4954951;29;20044;-66
2022/10/29 09:17:42;;;;;;;7.65;4.30;;;14.50;99.90;;;;;;4955168;29;20047;-66
2022/10/29 09:20:40;;;;;;;10.75;4.75;;;14.50;99.90;;;;;;4937938;29;20119;-66
2022/10/29 09:23:43;;;;;;;11.70;5.90;;;14.50;99.90;;;;;;4955102;29;20042;-66
2022/10/29 09:26:15;;;;;;;7.10;3.83;;;14.60;99.90;;;;;;4954880;29;20047;-67
2022/10/29 09:29:02;;;;;;;7.53;4.47;;;14.60;99.90;;;;;;4954995;29;20391;-67
2022/10/29 09:31:45;;;;;;;11.27;4.20;;;14.60;99.90;;;;;;4954794;29;20108;-67
2022/10/29 09:34:17;;;;;;;9.98;4.47;;;14.60;99.90;;;;;;4954560;29;20113;-66
2022/10/29 09:36:47;;;;;;;8.93;4.15;;;14.70;99.90;;;;;;4955108;29;20058;-66
2022/10/29 09:39:17;;;;;;;9.43;4.13;;;14.70;99.90;;;;;;4955062;29;20517;-66
2022/10/29 09:41:43;;;;;;;8.68;3.75;;;14.70;99.90;;;;;;4954620;29;20054;-66
2022/10/29 09:44:39;;;;;;;13.65;4.30;;;14.70;99.90;;;;;;4954671;29;20054;-66
2022/10/29 09:47:30;;;;;;;9.20;5.20;;;14.70;99.90;;;;;;4931012;29;20529;-66
2022/10/29 09:50:10;;;;;;;7.20;3.90;;;14.80;99.90;;;;;;4954730;29;20067;-66
2022/10/29 09:52:39;;;;;;;10.00;4.30;;;14.90;99.90;;;;;;4954441;29;20075;-66
2022/10/29 09:55:09;;;;;;;8.00;4.22;;;14.90;99.90;;;;;;4954853;29;20040;-66
2022/10/29 09:57:38;;;;;;;13.20;3.83;;;14.90;99.90;;;;;;4954450;29;20042;-66
2022/10/29 10:00:06;;;;;;;7.32;4.45;;;15.10;99.90;;;;;;4955296;28;20043;-66
2022/10/29 10:02:36;;;;;;;9.10;4.50;;;15.10;99.90;;;;;;4958298;29;20135;-66
2022/10/29 10:05:13;;;;;;;10.33;5.33;;;15.30;99.90;;;;;;4958547;29;20487;-66
2022/10/29 10:07:39;;;;;;;10.95;4.57;;;15.40;99.90;;;;;;4940744;29;20043;-66
2022/10/29 10:10:22;;;;;;;10.68;5.25;;;15.50;99.90;;;;;;4958091;29;20050;-66
2022/10/29 10:12:49;;;;;;;7.68;4.22;;;15.60;99.90;;;;;;4958075;29;20039;-65
2022/10/29 10:15:15;;;;;;;10.05;4.95;;;15.60;99.90;;;;;;4940728;29;20491;-65
2022/10/29 10:17:57;;;;;;;7.93;4.85;;;15.60;99.90;;;;;;4957638;29;20158;-65
2022/10/29 10:20:31;;;;;;;8.07;4.63;;;15.70;99.90;;;;;;4957673;29;20053;-66
2022/10/29 10:22:57;;;;;;;11.20;5.20;;;15.60;99.90;;;;;;4957770;29;20506;-66
2022/10/29 10:25:38;;;;;;;10.88;4.45;;;15.60;99.90;;;;;;4957853;29;20039;-66
2022/10/29 10:28:28;;;;;;;9.98;4.80;;;15.60;99.90;;;;;;4957737;29;20043;-65
2022/10/29 10:31:03;;;;;;;9.27;4.43;;;15.70;99.90;;;;;;4957369;29;20039;-66
2022/10/29 10:33:30;;;;;;;13.63;5.07;;;15.70;99.90;;;;;;4957509;29;20036;-66
2022/10/29 10:36:01;;;;;;;11.20;4.45;;;15.70;99.90;;;;;;4957635;29;20039;-66
2022/10/29 10:38:27;;;;;;;;;;;15.80;99.90;;;;;;4957984;29;20046;-67
2022/10/29 10:41:03;;;;;;;8.85;4.20;;;15.90;99.90;;;;;;4957571;29;19922;-67
2022/10/29 10:43:28;;;;;;;10.00;5.07;;;16.00;99.90;;;;;;4957200;29;20118;-67
2022/10/29 10:46:02;;;;;;;9.82;4.72;;;16.00;99.90;;;;;;4940367;29;20107;-67
2022/10/29 10:48:28;;;;;;;8.07;4.75;;;16.20;99.90;;;;;;4939885;29;20055;-67
2022/10/29 10:51:15;;;;;;;8.65;4.85;;;16.20;99.90;;;;;;4957403;29;20066;-68
2022/10/29 10:53:41;;;;;;;9.38;4.35;;;16.50;99.90;;;;;;4957021;29;20047;-67
2022/10/29 10:56:15;;;;;;;8.05;4.22;;;16.70;99.90;;;;;;4957330;29;20044;-66
2022/10/29 10:58:58;;;;;;;8.95;3.85;;;16.80;99.90;;;;;;4957228;29;20047;-67
2022/10/29 11:01:41;;;;;;;11.27;3.83;;;16.80;99.90;;;;;;4956931;29;20047;-66
2022/10/29 11:04:32;;;;;;;7.43;4.15;;;16.80;99.90;;;;;;4957193;29;20050;-66
2022/10/29 11:07:03;;;;;;;13.27;3.97;;;16.90;99.90;;;;;;4957063;29;20495;-67
2022/10/29 11:09:47;;;;;;;5.53;3.40;;;17.00;99.90;;;;;;4957049;29;20050;-71
2022/10/29 11:12:45;;;;;;;7.05;4.13;;;17.20;99.90;;;;;;4956764;28;20087;-67
2022/10/29 11:15:34;;;;;;;10.40;4.22;;;17.30;99.90;;;;;;4941671;29;20051;-66
2022/10/29 11:18:12;;;;;;;7.55;4.10;;;17.50;99.90;;;;;;4956953;29;20053;-67
2022/10/29 11:20:42;;;;;;;9.52;4.18;;;17.70;99.90;;;;;;4939380;29;20039;-67
2022/10/29 11:23:40;;;;;;;8.32;4.15;;;17.80;99.90;;;;;;4956554;29;20097;-66
2022/10/29 11:26:30;;;;;;;7.70;3.60;;;17.80;99.90;;;;;;4914039;29;20071;-67
2022/10/29 11:29:23;;;;;;;5.53;3.78;;;17.80;99.90;;;;;;4939244;29;20126;-66
2022/10/29 11:32:14;;;;;;;8.10;3.92;;;17.80;99.90;;;;;;4956598;29;20099;-66
2022/10/29 11:34:54;;;;;;;9.00;4.20;;;17.70;99.90;;;;;;4955977;28;20055;-66
2022/10/29 11:37:30;;;;;;;6.82;4.05;;;17.70;99.90;;;;;;4956258;29;20039;-67
2022/10/29 11:40:22;;;;;;;7.68;4.47;;;17.70;99.90;;;;;;4956179;29;20118;-66
2022/10/29 11:42:48;;;;;;;7.07;4.03;;;17.70;99.90;;;;;;4938567;29;20131;-66
2022/10/29 11:45:19;;;;;;;10.43;4.63;;;17.90;99.90;;;;;;4956062;29;20112;-66
2022/10/29 11:48:09;;;;;;;10.80;4.78;;;17.80;99.90;;;;;;4956188;29;20391;-66
2022/10/29 11:51:16;;;;;;;10.65;4.10;;;17.80;99.90;;;;;;4956054;29;20043;-67
2022/10/29 11:54:16;;;;;;;7.90;4.10;;;17.80;99.90;;;;;;4955844;29;20052;-66
2022/10/29 11:56:49;;;;;;;8.00;4.43;;;17.90;99.90;;;;;;4956241;29;20043;-67
2022/10/29 11:59:25;;;;;;;10.75;4.43;;;18.00;99.90;;;;;;4938737;29;20047;-66
2022/10/29 12:02:02;;;;;;;9.82;4.78;;;18.10;99.90;;;;;;4956103;29;20043;-66
2022/10/29 12:04:45;;;;;;;7.55;4.10;;;18.10;99.90;;;;;;4955955;29;20031;-66
2022/10/29 12:07:38;;;;;;;7.57;4.40;;;18.30;99.90;;;;;;4956119;29;20495;-67
2022/10/29 12:10:22;;;;;;;11.75;4.18;;;18.40;99.90;;;;;;4955892;29;20046;-67
2022/10/29 12:13:00;;;;;;;7.57;4.10;;;18.50;99.90;;;;;;4955591;29;20039;-66
2022/10/29 12:15:50;;;;;;;10.20;3.92;;;18.50;99.90;;;;;;4955926;29;20110;-66
2022/10/29 12:18:51;;;;;;;8.93;3.90;;;18.60;99.90;;;;;;4955609;29;20324;-67
2022/10/29 12:21:27;;;;;;;6.97;4.15;;;18.60;99.90;;;;;;4955501;29;20141;-69
2022/10/29 12:24:01;;;;;;;7.75;4.10;;;18.60;99.90;;;;;;4955173;28;20138;-67
2022/10/29 12:26:50;;;;;;;5.32;3.50;;;18.60;99.90;;;;;;4955425;29;20142;-66
2022/10/29 12:29:36;;;;;;;7.38;4.10;;;18.50;99.90;;;;;;4941764;29;20083;-67
2022/10/29 12:32:20;;;;;;;9.90;4.32;;;18.40;99.90;;;;;;4954744;29;20054;-68
2022/10/29 12:35:06;;;;;;;9.40;3.78;;;18.40;99.90;;;;;;4955296;29;20078;-67
2022/10/29 12:37:48;;;;;;;6.25;3.65;;;18.30;99.90;;;;;;4955610;29;20478;-67
2022/10/29 12:40:21;;;;;;;7.57;3.78;;;18.40;99.90;;;;;;4955515;29;20050;-66
2022/10/29 12:42:48;;;;;;;7.82;3.40;;;18.30;99.90;;;;;;4955511;29;20046;-67
2022/10/29 12:45:32;;;;;;;7.25;3.67;;;18.30;99.90;;;;;;4955106;29;20075;-67
2022/10/29 12:48:28;;;;;;;8.57;4.53;;;18.40;99.90;;;;;;4955373;29;20101;-66
2022/10/29 12:51:02;;;;;;;8.27;4.35;;;18.50;99.90;;;;;;4955386;29;20035;-67
2022/10/29 12:53:57;;;;;;;7.75;4.18;;;18.60;99.90;;;;;;4955374;29;20078;-67
2022/10/29 12:56:24;;;;;;;7.97;4.00;;;18.50;99.90;;;;;;4955342;29;20418;-67
2022/10/29 12:58:55;;;;;;;7.18;4.15;;;18.50;99.90;;;;;;4954977;29;20042;-67
2022/10/29 13:01:27;;;;;;;9.63;3.95;;;18.50;99.90;;;;;;4955326;29;20451;-67
2022/10/29 13:03:56;;;;;;;10.25;4.35;;;18.40;99.90;;;;;;4955331;29;20407;-67
2022/10/29 13:06:40;;;;;;;7.35;4.28;;;18.40;99.90;;;;;;4954955;29;20130;-67
2022/10/29 13:09:28;;;;;;;12.40;4.30;;;18.40;99.90;;;;;;4955158;29;20054;-66